Ermine, Kentucky
Current Conditions -  °F | °C
As of 8:35 AM on Thursday 30 Oct 2014 (Local Time) from KLNP Reporting Station
Moderate Fog Moderate Fog  
Wind Chill: 34°   Ceiling: 500
Heat Index: 34°   Visibility: 0.5mi
Dew Point: 34°   Wind: 0mph
Humidity: 100%   Direction: NA
Pressure: 30.11"   Gusts: NA
Location:  37.12°N, 82.79°W
Report Text: KLNP 301235Z AUTO 00000KT 1/2SM FG VV005 01/01 A3011 RMK AO2 VIS 1/4V4
Loading
Personal Weather Stations






























Interactive Weather Map
Tropical Storm Tracking
New forecast layout! Learn more

10-Day Weather Forecast

Advertisements
Track Severe Weather on mobile